sensor_id;sensor_type;location;lat;lon;timestamp;P1;durP1;ratioP1;P2;durP2;ratioP2
15285;SDS011;7744;52.172;10.668;2022-09-09T00:00:38;3.53;;;1.58;;
15285;SDS011;7744;52.172;10.668;2022-09-09T00:03:17;1.70;;;1.60;;
15285;SDS011;7744;52.172;10.668;2022-09-09T00:08:46;4.13;;;1.50;;
15285;SDS011;7744;52.172;10.668;2022-09-09T00:11:25;1.95;;;1.40;;
15285;SDS011;7744;52.172;10.668;2022-09-09T00:13:55;1.52;;;1.35;;
15285;SDS011;7744;52.172;10.668;2022-09-09T00:16:24;1.50;;;1.40;;
15285;SDS011;7744;52.172;10.668;2022-09-09T00:18:59;2.17;;;1.50;;
15285;SDS011;7744;52.172;10.668;2022-09-09T00:21:46;4.03;;;1.40;;
15285;SDS011;7744;52.172;10.668;2022-09-09T00:27:16;1.20;;;1.10;;
15285;SDS011;7744;52.172;10.668;2022-09-09T00:32:28;3.25;;;1.17;;
15285;SDS011;7744;52.172;10.668;2022-09-09T00:35:03;3.42;;;1.30;;
15285;SDS011;7744;52.172;10.668;2022-09-09T00:37:41;3.38;;;1.35;;
15285;SDS011;7744;52.172;10.668;2022-09-09T00:49:04;1.10;;;1.10;;
15285;SDS011;7744;52.172;10.668;2022-09-09T00:57:23;4.07;;;1.20;;
15285;SDS011;7744;52.172;10.668;2022-09-09T01:05:22;2.65;;;1.10;;
15285;SDS011;7744;52.172;10.668;2022-09-09T01:08:59;2.42;;;1.48;;
15285;SDS011;7744;52.172;10.668;2022-09-09T01:11:25;1.60;;;1.13;;
15285;SDS011;7744;52.172;10.668;2022-09-09T01:16:57;2.55;;;1.45;;
15285;SDS011;7744;52.172;10.668;2022-09-09T01:20:12;1.50;;;1.20;;
15285;SDS011;7744;52.172;10.668;2022-09-09T01:28:00;3.47;;;1.35;;
15285;SDS011;7744;52.172;10.668;2022-09-09T01:30:32;2.00;;;1.30;;
15285;SDS011;7744;52.172;10.668;2022-09-09T01:32:59;2.17;;;1.40;;
15285;SDS011;7744;52.172;10.668;2022-09-09T01:37:59;2.80;;;1.30;;
15285;SDS011;7744;52.172;10.668;2022-09-09T01:40:25;4.10;;;1.65;;
15285;SDS011;7744;52.172;10.668;2022-09-09T01:42:51;2.88;;;1.65;;
15285;SDS011;7744;52.172;10.668;2022-09-09T01:45:18;1.92;;;1.40;;
15285;SDS011;7744;52.172;10.668;2022-09-09T01:47:44;2.95;;;1.20;;
15285;SDS011;7744;52.172;10.668;2022-09-09T01:50:11;4.07;;;1.70;;
15285;SDS011;7744;52.172;10.668;2022-09-09T01:52:38;4.22;;;1.60;;
15285;SDS011;7744;52.172;10.668;2022-09-09T01:55:04;2.70;;;1.60;;
15285;SDS011;7744;52.172;10.668;2022-09-09T01:57:33;5.82;;;1.83;;
15285;SDS011;7744;52.172;10.668;2022-09-09T02:00:24;2.15;;;1.60;;
15285;SDS011;7744;52.172;10.668;2022-09-09T02:03:12;2.65;;;1.45;;
15285;SDS011;7744;52.172;10.668;2022-09-09T02:05:49;2.50;;;1.67;;
15285;SDS011;7744;52.172;10.668;2022-09-09T02:08:27;3.40;;;1.73;;
15285;SDS011;7744;52.172;10.668;2022-09-09T02:11:17;3.63;;;1.52;;
15285;SDS011;7744;52.172;10.668;2022-09-09T02:13:45;4.50;;;1.60;;
15285;SDS011;7744;52.172;10.668;2022-09-09T02:16:30;4.32;;;1.50;;
15285;SDS011;7744;52.172;10.668;2022-09-09T02:21:42;2.60;;;1.25;;
15285;SDS011;7744;52.172;10.668;2022-09-09T02:24:09;5.22;;;1.50;;
15285;SDS011;7744;52.172;10.668;2022-09-09T02:26:39;3.13;;;1.80;;
15285;SDS011;7744;52.172;10.668;2022-09-09T02:29:08;3.53;;;1.48;;
15285;SDS011;7744;52.172;10.668;2022-09-09T02:31:47;1.42;;;1.30;;
15285;SDS011;7744;52.172;10.668;2022-09-09T02:34:14;1.83;;;1.42;;
15285;SDS011;7744;52.172;10.668;2022-09-09T02:36:43;3.05;;;1.40;;
15285;SDS011;7744;52.172;10.668;2022-09-09T02:39:12;2.50;;;1.40;;
15285;SDS011;7744;52.172;10.668;2022-09-09T02:41:39;3.08;;;1.58;;
15285;SDS011;7744;52.172;10.668;2022-09-09T02:44:12;2.78;;;1.38;;
15285;SDS011;7744;52.172;10.668;2022-09-09T02:52:21;2.72;;;1.60;;
15285;SDS011;7744;52.172;10.668;2022-09-09T02:55:16;5.05;;;1.80;;
15285;SDS011;7744;52.172;10.668;2022-09-09T02:57:46;4.15;;;1.60;;
15285;SDS011;7744;52.172;10.668;2022-09-09T03:00:13;3.42;;;1.70;;
15285;SDS011;7744;52.172;10.668;2022-09-09T03:02:39;2.17;;;1.70;;
15285;SDS011;7744;52.172;10.668;2022-09-09T03:05:07;2.80;;;1.50;;
15285;SDS011;7744;52.172;10.668;2022-09-09T03:07:33;3.13;;;1.65;;
15285;SDS011;7744;52.172;10.668;2022-09-09T03:09:58;3.50;;;1.67;;
15285;SDS011;7744;52.172;10.668;2022-09-09T03:12:24;3.13;;;1.55;;
15285;SDS011;7744;52.172;10.668;2022-09-09T03:14:50;3.15;;;1.58;;
15285;SDS011;7744;52.172;10.668;2022-09-09T03:17:15;3.28;;;1.60;;
15285;SDS011;7744;52.172;10.668;2022-09-09T03:19:41;2.67;;;1.75;;
15285;SDS011;7744;52.172;10.668;2022-09-09T03:22:09;4.57;;;1.60;;
15285;SDS011;7744;52.172;10.668;2022-09-09T03:24:36;2.60;;;1.63;;
15285;SDS011;7744;52.172;10.668;2022-09-09T03:27:02;3.13;;;1.65;;
15285;SDS011;7744;52.172;10.668;2022-09-09T03:29:27;3.92;;;1.80;;
15285;SDS011;7744;52.172;10.668;2022-09-09T03:31:53;2.53;;;1.50;;
15285;SDS011;7744;52.172;10.668;2022-09-09T03:34:19;3.17;;;1.60;;
15285;SDS011;7744;52.172;10.668;2022-09-09T03:36:44;1.95;;;1.60;;
15285;SDS011;7744;52.172;10.668;2022-09-09T03:39:11;3.92;;;2.03;;
15285;SDS011;7744;52.172;10.668;2022-09-09T03:41:36;3.63;;;1.77;;
15285;SDS011;7744;52.172;10.668;2022-09-09T03:44:02;2.67;;;1.60;;
15285;SDS011;7744;52.172;10.668;2022-09-09T03:46:28;2.38;;;1.83;;
15285;SDS011;7744;52.172;10.668;2022-09-09T03:48:53;4.00;;;1.80;;
15285;SDS011;7744;52.172;10.668;2022-09-09T03:51:19;3.05;;;2.08;;
15285;SDS011;7744;52.172;10.668;2022-09-09T03:53:44;4.28;;;1.90;;
15285;SDS011;7744;52.172;10.668;2022-09-09T03:56:10;6.45;;;2.20;;
15285;SDS011;7744;52.172;10.668;2022-09-09T03:58:37;4.97;;;2.25;;
15285;SDS011;7744;52.172;10.668;2022-09-09T04:01:04;4.03;;;1.90;;
15285;SDS011;7744;52.172;10.668;2022-09-09T04:03:34;3.42;;;1.85;;
15285;SDS011;7744;52.172;10.668;2022-09-09T04:06:00;2.95;;;1.80;;
15285;SDS011;7744;52.172;10.668;2022-09-09T04:08:28;3.00;;;1.90;;
15285;SDS011;7744;52.172;10.668;2022-09-09T04:10:56;3.05;;;1.63;;
15285;SDS011;7744;52.172;10.668;2022-09-09T04:13:23;4.28;;;1.92;;
15285;SDS011;7744;52.172;10.668;2022-09-09T04:15:53;3.75;;;2.05;;
15285;SDS011;7744;52.172;10.668;2022-09-09T04:18:20;3.72;;;2.00;;
15285;SDS011;7744;52.172;10.668;2022-09-09T04:20:47;3.28;;;2.13;;
15285;SDS011;7744;52.172;10.668;2022-09-09T04:23:14;2.17;;;1.98;;
15285;SDS011;7744;52.172;10.668;2022-09-09T04:25:58;2.97;;;1.80;;
15285;SDS011;7744;52.172;10.668;2022-09-09T04:28:26;4.45;;;2.45;;
15285;SDS011;7744;52.172;10.668;2022-09-09T04:30:54;4.70;;;2.03;;
15285;SDS011;7744;52.172;10.668;2022-09-09T04:33:23;3.28;;;2.20;;
15285;SDS011;7744;52.172;10.668;2022-09-09T04:35:52;3.22;;;2.17;;
15285;SDS011;7744;52.172;10.668;2022-09-09T04:38:20;4.47;;;2.00;;
15285;SDS011;7744;52.172;10.668;2022-09-09T04:40:48;4.13;;;2.20;;
15285;SDS011;7744;52.172;10.668;2022-09-09T04:43:14;5.72;;;2.20;;
15285;SDS011;7744;52.172;10.668;2022-09-09T04:45:41;2.83;;;2.10;;
15285;SDS011;7744;52.172;10.668;2022-09-09T04:48:07;4.63;;;2.50;;
15285;SDS011;7744;52.172;10.668;2022-09-09T04:50:34;2.58;;;2.00;;
15285;SDS011;7744;52.172;10.668;2022-09-09T04:53:03;4.35;;;1.88;;
15285;SDS011;7744;52.172;10.668;2022-09-09T04:55:30;5.20;;;2.60;;
15285;SDS011;7744;52.172;10.668;2022-09-09T04:57:56;6.65;;;2.40;;
15285;SDS011;7744;52.172;10.668;2022-09-09T05:00:22;7.30;;;2.40;;
15285;SDS011;7744;52.172;10.668;2022-09-09T05:02:49;4.03;;;2.38;;
15285;SDS011;7744;52.172;10.668;2022-09-09T05:05:14;3.38;;;2.25;;
15285;SDS011;7744;52.172;10.668;2022-09-09T05:07:41;4.85;;;2.20;;
15285;SDS011;7744;52.172;10.668;2022-09-09T05:10:07;3.53;;;2.00;;
15285;SDS011;7744;52.172;10.668;2022-09-09T05:12:33;3.85;;;2.10;;
15285;SDS011;7744;52.172;10.668;2022-09-09T05:14:58;2.53;;;1.90;;
15285;SDS011;7744;52.172;10.668;2022-09-09T05:17:24;3.38;;;1.98;;
15285;SDS011;7744;52.172;10.668;2022-09-09T05:19:49;3.70;;;1.98;;
15285;SDS011;7744;52.172;10.668;2022-09-09T05:22:21;4.47;;;2.10;;
15285;SDS011;7744;52.172;10.668;2022-09-09T05:24:48;2.75;;;1.80;;
15285;SDS011;7744;52.172;10.668;2022-09-09T05:27:16;4.10;;;2.10;;
15285;SDS011;7744;52.172;10.668;2022-09-09T05:29:44;2.42;;;1.90;;
15285;SDS011;7744;52.172;10.668;2022-09-09T05:32:10;3.33;;;2.00;;
15285;SDS011;7744;52.172;10.668;2022-09-09T05:34:35;4.50;;;2.10;;
15285;SDS011;7744;52.172;10.668;2022-09-09T05:37:02;4.55;;;2.10;;
15285;SDS011;7744;52.172;10.668;2022-09-09T05:39:29;3.20;;;1.90;;
15285;SDS011;7744;52.172;10.668;2022-09-09T05:41:55;3.08;;;2.00;;
15285;SDS011;7744;52.172;10.668;2022-09-09T05:44:20;4.95;;;1.80;;
15285;SDS011;7744;52.172;10.668;2022-09-09T05:46:48;3.45;;;2.10;;
15285;SDS011;7744;52.172;10.668;2022-09-09T05:49:14;2.55;;;1.80;;
15285;SDS011;7744;52.172;10.668;2022-09-09T05:51:40;5.30;;;2.25;;
15285;SDS011;7744;52.172;10.668;2022-09-09T05:54:07;5.05;;;2.30;;
15285;SDS011;7744;52.172;10.668;2022-09-09T05:56:33;2.40;;;1.80;;
15285;SDS011;7744;52.172;10.668;2022-09-09T05:58:59;3.80;;;1.80;;
15285;SDS011;7744;52.172;10.668;2022-09-09T06:01:26;4.60;;;1.98;;
15285;SDS011;7744;52.172;10.668;2022-09-09T06:03:54;4.82;;;2.28;;
15285;SDS011;7744;52.172;10.668;2022-09-09T06:06:21;3.60;;;1.73;;
15285;SDS011;7744;52.172;10.668;2022-09-09T06:08:52;3.65;;;2.00;;
15285;SDS011;7744;52.172;10.668;2022-09-09T06:11:20;3.45;;;2.17;;
15285;SDS011;7744;52.172;10.668;2022-09-09T06:13:47;3.17;;;1.85;;
15285;SDS011;7744;52.172;10.668;2022-09-09T06:16:17;2.67;;;1.90;;
15285;SDS011;7744;52.172;10.668;2022-09-09T06:18:43;2.50;;;1.88;;
15285;SDS011;7744;52.172;10.668;2022-09-09T06:21:11;4.72;;;1.92;;
15285;SDS011;7744;52.172;10.668;2022-09-09T06:23:42;2.75;;;1.63;;
15285;SDS011;7744;52.172;10.668;2022-09-09T06:26:13;3.50;;;1.90;;
15285;SDS011;7744;52.172;10.668;2022-09-09T06:28:44;3.65;;;1.70;;
15285;SDS011;7744;52.172;10.668;2022-09-09T06:31:11;3.38;;;1.50;;
15285;SDS011;7744;52.172;10.668;2022-09-09T06:33:38;3.92;;;1.80;;
15285;SDS011;7744;52.172;10.668;2022-09-09T06:36:07;4.13;;;1.95;;
15285;SDS011;7744;52.172;10.668;2022-09-09T06:38:37;3.92;;;1.73;;
15285;SDS011;7744;52.172;10.668;2022-09-09T06:41:03;3.50;;;1.77;;
15285;SDS011;7744;52.172;10.668;2022-09-09T06:43:30;4.13;;;1.75;;
15285;SDS011;7744;52.172;10.668;2022-09-09T06:45:57;3.88;;;1.58;;
15285;SDS011;7744;52.172;10.668;2022-09-09T06:48:24;4.18;;;1.50;;
15285;SDS011;7744;52.172;10.668;2022-09-09T06:51:06;4.00;;;1.60;;
15285;SDS011;7744;52.172;10.668;2022-09-09T06:53:34;3.45;;;1.40;;
15285;SDS011;7744;52.172;10.668;2022-09-09T06:56:01;5.95;;;1.23;;
15285;SDS011;7744;52.172;10.668;2022-09-09T06:58:39;2.65;;;1.25;;
15285;SDS011;7744;52.172;10.668;2022-09-09T07:01:09;7.32;;;1.58;;
15285;SDS011;7744;52.172;10.668;2022-09-09T07:03:37;2.72;;;1.13;;
15285;SDS011;7744;52.172;10.668;2022-09-09T07:06:03;1.35;;;1.00;;
15285;SDS011;7744;52.172;10.668;2022-09-09T07:08:30;2.22;;;0.80;;
15285;SDS011;7744;52.172;10.668;2022-09-09T07:11:01;1.83;;;0.90;;
15285;SDS011;7744;52.172;10.668;2022-09-09T07:13:31;3.97;;;1.15;;
15285;SDS011;7744;52.172;10.668;2022-09-09T07:16:07;3.63;;;0.95;;
15285;SDS011;7744;52.172;10.668;2022-09-09T07:18:34;3.08;;;1.17;;
15285;SDS011;7744;52.172;10.668;2022-09-09T07:21:00;2.72;;;1.15;;
15285;SDS011;7744;52.172;10.668;2022-09-09T07:23:28;3.45;;;1.13;;
15285;SDS011;7744;52.172;10.668;2022-09-09T07:25:54;2.70;;;1.05;;
15285;SDS011;7744;52.172;10.668;2022-09-09T07:28:21;2.25;;;0.90;;
15285;SDS011;7744;52.172;10.668;2022-09-09T07:30:57;2.00;;;1.00;;
15285;SDS011;7744;52.172;10.668;2022-09-09T07:33:30;2.00;;;1.02;;
15285;SDS011;7744;52.172;10.668;2022-09-09T07:36:17;4.47;;;1.38;;
15285;SDS011;7744;52.172;10.668;2022-09-09T07:38:49;4.82;;;1.50;;
15285;SDS011;7744;52.172;10.668;2022-09-09T07:41:18;2.72;;;1.10;;
15285;SDS011;7744;52.172;10.668;2022-09-09T07:43:46;3.08;;;1.05;;
15285;SDS011;7744;52.172;10.668;2022-09-09T07:46:13;1.98;;;0.98;;
15285;SDS011;7744;52.172;10.668;2022-09-09T07:48:44;2.22;;;0.95;;
15285;SDS011;7744;52.172;10.668;2022-09-09T07:51:12;3.75;;;1.13;;
15285;SDS011;7744;52.172;10.668;2022-09-09T07:53:42;2.67;;;1.10;;
15285;SDS011;7744;52.172;10.668;2022-09-09T07:56:09;4.35;;;1.33;;
15285;SDS011;7744;52.172;10.668;2022-09-09T07:58:37;2.78;;;1.02;;
15285;SDS011;7744;52.172;10.668;2022-09-09T08:01:08;3.25;;;1.00;;
15285;SDS011;7744;52.172;10.668;2022-09-09T08:03:35;2.70;;;0.93;;
15285;SDS011;7744;52.172;10.668;2022-09-09T08:06:01;1.80;;;0.90;;
15285;SDS011;7744;52.172;10.668;2022-09-09T08:08:28;3.67;;;1.35;;
15285;SDS011;7744;52.172;10.668;2022-09-09T08:11:00;3.15;;;1.08;;
15285;SDS011;7744;52.172;10.668;2022-09-09T08:13:32;3.55;;;1.00;;
15285;SDS011;7744;52.172;10.668;2022-09-09T08:18:41;3.05;;;0.90;;
15285;SDS011;7744;52.172;10.668;2022-09-09T08:21:07;2.88;;;0.90;;
15285;SDS011;7744;52.172;10.668;2022-09-09T08:23:41;1.80;;;0.88;;
15285;SDS011;7744;52.172;10.668;2022-09-09T08:26:14;3.67;;;0.85;;
15285;SDS011;7744;52.172;10.668;2022-09-09T08:28:42;2.53;;;0.98;;
15285;SDS011;7744;52.172;10.668;2022-09-09T08:33:41;2.80;;;0.98;;
15285;SDS011;7744;52.172;10.668;2022-09-09T08:36:11;3.13;;;0.93;;
15285;SDS011;7744;52.172;10.668;2022-09-09T08:38:47;3.70;;;1.30;;
15285;SDS011;7744;52.172;10.668;2022-09-09T08:44:10;3.58;;;0.98;;
15285;SDS011;7744;52.172;10.668;2022-09-09T08:49:43;2.63;;;0.88;;
15285;SDS011;7744;52.172;10.668;2022-09-09T08:52:30;1.95;;;0.85;;
15285;SDS011;7744;52.172;10.668;2022-09-09T08:55:05;2.58;;;1.20;;
15285;SDS011;7744;52.172;10.668;2022-09-09T08:57:47;3.90;;;0.98;;
15285;SDS011;7744;52.172;10.668;2022-09-09T09:00:16;2.78;;;1.00;;
15285;SDS011;7744;52.172;10.668;2022-09-09T09:03:05;3.65;;;1.23;;
15285;SDS011;7744;52.172;10.668;2022-09-09T09:05:48;2.85;;;0.85;;
15285;SDS011;7744;52.172;10.668;2022-09-09T09:08:25;3.80;;;1.13;;
15285;SDS011;7744;52.172;10.668;2022-09-09T09:10:53;1.98;;;0.77;;
15285;SDS011;7744;52.172;10.668;2022-09-09T09:18:38;4.28;;;1.15;;
15285;SDS011;7744;52.172;10.668;2022-09-09T09:21:10;3.17;;;1.10;;
15285;SDS011;7744;52.172;10.668;2022-09-09T09:23:56;2.55;;;1.13;;
15285;SDS011;7744;52.172;10.668;2022-09-09T09:26:33;3.42;;;1.02;;
15285;SDS011;7744;52.172;10.668;2022-09-09T09:29:00;2.95;;;1.05;;
15285;SDS011;7744;52.172;10.668;2022-09-09T09:31:28;3.40;;;1.10;;
15285;SDS011;7744;52.172;10.668;2022-09-09T09:33:54;3.72;;;1.15;;
15285;SDS011;7744;52.172;10.668;2022-09-09T09:36:24;3.45;;;1.02;;
15285;SDS011;7744;52.172;10.668;2022-09-09T09:38:57;2.85;;;0.98;;
15285;SDS011;7744;52.172;10.668;2022-09-09T09:41:32;4.05;;;0.98;;
15285;SDS011;7744;52.172;10.668;2022-09-09T09:43:58;2.03;;;0.88;;
15285;SDS011;7744;52.172;10.668;2022-09-09T09:46:26;2.75;;;0.90;;
15285;SDS011;7744;52.172;10.668;2022-09-09T09:48:58;2.40;;;0.90;;
15285;SDS011;7744;52.172;10.668;2022-09-09T09:51:25;2.65;;;0.90;;
15285;SDS011;7744;52.172;10.668;2022-09-09T09:53:51;2.60;;;0.88;;
15285;SDS011;7744;52.172;10.668;2022-09-09T09:56:25;3.03;;;0.98;;
15285;SDS011;7744;52.172;10.668;2022-09-09T09:58:52;3.17;;;1.10;;
15285;SDS011;7744;52.172;10.668;2022-09-09T10:01:24;3.55;;;1.05;;
15285;SDS011;7744;52.172;10.668;2022-09-09T10:03:54;2.45;;;0.90;;
15285;SDS011;7744;52.172;10.668;2022-09-09T10:06:30;2.28;;;1.10;;
15285;SDS011;7744;52.172;10.668;2022-09-09T10:08:57;3.75;;;0.77;;
15285;SDS011;7744;52.172;10.668;2022-09-09T10:11:29;2.97;;;0.82;;
15285;SDS011;7744;52.172;10.668;2022-09-09T10:14:12;3.10;;;0.98;;
15285;SDS011;7744;52.172;10.668;2022-09-09T10:16:46;4.60;;;1.17;;
15285;SDS011;7744;52.172;10.668;2022-09-09T10:19:36;3.03;;;0.70;;
15285;SDS011;7744;52.172;10.668;2022-09-09T10:27:05;3.45;;;1.23;;
15285;SDS011;7744;52.172;10.668;2022-09-09T10:32:27;3.25;;;1.00;;
15285;SDS011;7744;52.172;10.668;2022-09-09T10:37:37;1.77;;;0.80;;
15285;SDS011;7744;52.172;10.668;2022-09-09T10:42:55;2.92;;;0.90;;
15285;SDS011;7744;52.172;10.668;2022-09-09T10:45:28;3.28;;;0.90;;
15285;SDS011;7744;52.172;10.668;2022-09-09T10:50:38;2.17;;;0.93;;
15285;SDS011;7744;52.172;10.668;2022-09-09T10:55:40;2.05;;;0.82;;
15285;SDS011;7744;52.172;10.668;2022-09-09T10:58:09;1.80;;;0.77;;
15285;SDS011;7744;52.172;10.668;2022-09-09T11:03:02;2.13;;;0.63;;
15285;SDS011;7744;52.172;10.668;2022-09-09T11:05:35;3.40;;;0.90;;
15285;SDS011;7744;52.172;10.668;2022-09-09T11:13:15;2.97;;;0.95;;
15285;SDS011;7744;52.172;10.668;2022-09-09T11:15:50;2.95;;;1.00;;
15285;SDS011;7744;52.172;10.668;2022-09-09T11:18:20;2.65;;;0.80;;
15285;SDS011;7744;52.172;10.668;2022-09-09T11:20:49;2.20;;;0.85;;
15285;SDS011;7744;52.172;10.668;2022-09-09T11:23:32;1.88;;;0.73;;
15285;SDS011;7744;52.172;10.668;2022-09-09T11:26:31;2.67;;;0.80;;
15285;SDS011;7744;52.172;10.668;2022-09-09T11:42:44;2.20;;;0.90;;
15285;SDS011;7744;52.172;10.668;2022-09-09T11:45:31;3.17;;;0.80;;
15285;SDS011;7744;52.172;10.668;2022-09-09T11:47:59;3.88;;;1.13;;
15285;SDS011;7744;52.172;10.668;2022-09-09T11:50:33;1.85;;;0.70;;
15285;SDS011;7744;52.172;10.668;2022-09-09T11:53:06;2.08;;;0.98;;
15285;SDS011;7744;52.172;10.668;2022-09-09T11:55:45;3.53;;;1.05;;
15285;SDS011;7744;52.172;10.668;2022-09-09T12:00:38;3.55;;;1.15;;
15285;SDS011;7744;52.172;10.668;2022-09-09T12:03:30;2.80;;;0.90;;
15285;SDS011;7744;52.172;10.668;2022-09-09T12:08:46;3.53;;;1.00;;
15285;SDS011;7744;52.172;10.668;2022-09-09T12:11:25;3.58;;;0.90;;
15285;SDS011;7744;52.172;10.668;2022-09-09T12:13:56;1.90;;;0.90;;
15285;SDS011;7744;52.172;10.668;2022-09-09T12:16:35;2.03;;;0.65;;
15285;SDS011;7744;52.172;10.668;2022-09-09T12:19:24;3.47;;;0.98;;
15285;SDS011;7744;52.172;10.668;2022-09-09T12:21:58;2.03;;;0.70;;
15285;SDS011;7744;52.172;10.668;2022-09-09T12:24:37;2.92;;;0.88;;
15285;SDS011;7744;52.172;10.668;2022-09-09T12:27:26;2.95;;;0.80;;
15285;SDS011;7744;52.172;10.668;2022-09-09T12:30:02;1.60;;;0.60;;
15285;SDS011;7744;52.172;10.668;2022-09-09T12:32:32;2.13;;;0.77;;
15285;SDS011;7744;52.172;10.668;2022-09-09T12:35:20;3.42;;;0.90;;
15285;SDS011;7744;52.172;10.668;2022-09-09T12:37:51;2.03;;;0.90;;
15285;SDS011;7744;52.172;10.668;2022-09-09T12:40:31;2.47;;;0.82;;
15285;SDS011;7744;52.172;10.668;2022-09-09T12:43:00;2.67;;;0.80;;
15285;SDS011;7744;52.172;10.668;2022-09-09T12:45:28;1.45;;;0.60;;
15285;SDS011;7744;52.172;10.668;2022-09-09T12:48:01;2.75;;;0.90;;
15285;SDS011;7744;52.172;10.668;2022-09-09T12:50:32;1.90;;;0.73;;
15285;SDS011;7744;52.172;10.668;2022-09-09T12:53:10;2.60;;;0.90;;
15285;SDS011;7744;52.172;10.668;2022-09-09T12:55:49;1.35;;;0.63;;
15285;SDS011;7744;52.172;10.668;2022-09-09T12:58:17;2.60;;;0.73;;
15285;SDS011;7744;52.172;10.668;2022-09-09T13:00:50;2.42;;;0.80;;
15285;SDS011;7744;52.172;10.668;2022-09-09T13:03:18;2.35;;;0.70;;
15285;SDS011;7744;52.172;10.668;2022-09-09T13:05:48;1.52;;;0.70;;
15285;SDS011;7744;52.172;10.668;2022-09-09T13:08:15;2.40;;;0.70;;
15285;SDS011;7744;52.172;10.668;2022-09-09T13:10:49;1.73;;;0.52;;
15285;SDS011;7744;52.172;10.668;2022-09-09T13:13:25;2.75;;;0.77;;
15285;SDS011;7744;52.172;10.668;2022-09-09T13:15:56;1.05;;;0.47;;
15285;SDS011;7744;52.172;10.668;2022-09-09T13:18:24;2.58;;;0.75;;
15285;SDS011;7744;52.172;10.668;2022-09-09T13:20:53;1.98;;;0.90;;
15285;SDS011;7744;52.172;10.668;2022-09-09T13:23:19;2.65;;;0.88;;
15285;SDS011;7744;52.172;10.668;2022-09-09T13:25:53;3.08;;;0.68;;
15285;SDS011;7744;52.172;10.668;2022-09-09T13:28:28;3.28;;;0.80;;
15285;SDS011;7744;52.172;10.668;2022-09-09T13:30:55;1.48;;;0.63;;
15285;SDS011;7744;52.172;10.668;2022-09-09T13:33:24;2.47;;;0.60;;
15285;SDS011;7744;52.172;10.668;2022-09-09T13:35:56;1.95;;;0.60;;
15285;SDS011;7744;52.172;10.668;2022-09-09T13:38:23;2.13;;;0.77;;
15285;SDS011;7744;52.172;10.668;2022-09-09T13:43:22;2.35;;;0.80;;
15285;SDS011;7744;52.172;10.668;2022-09-09T13:46:00;2.40;;;0.68;;
15285;SDS011;7744;52.172;10.668;2022-09-09T13:48:27;1.73;;;0.68;;
15285;SDS011;7744;52.172;10.668;2022-09-09T13:50:57;1.15;;;0.60;;
15285;SDS011;7744;52.172;10.668;2022-09-09T13:53:24;2.47;;;0.60;;
15285;SDS011;7744;52.172;10.668;2022-09-09T13:55:50;2.83;;;0.80;;
15285;SDS011;7744;52.172;10.668;2022-09-09T13:58:17;2.20;;;0.77;;
15285;SDS011;7744;52.172;10.668;2022-09-09T14:00:44;1.65;;;0.60;;
15285;SDS011;7744;52.172;10.668;2022-09-09T14:03:10;3.33;;;0.90;;
15285;SDS011;7744;52.172;10.668;2022-09-09T14:05:36;2.38;;;0.65;;
15285;SDS011;7744;52.172;10.668;2022-09-09T14:08:06;2.20;;;0.60;;
15285;SDS011;7744;52.172;10.668;2022-09-09T14:10:32;3.13;;;0.80;;
15285;SDS011;7744;52.172;10.668;2022-09-09T14:13:01;2.53;;;0.70;;
15285;SDS011;7744;52.172;10.668;2022-09-09T14:15:27;2.45;;;0.70;;
15285;SDS011;7744;52.172;10.668;2022-09-09T14:17:53;1.52;;;0.70;;
15285;SDS011;7744;52.172;10.668;2022-09-09T14:20:19;3.35;;;0.70;;
15285;SDS011;7744;52.172;10.668;2022-09-09T14:22:45;1.25;;;0.52;;
15285;SDS011;7744;52.172;10.668;2022-09-09T14:25:10;2.00;;;0.68;;
15285;SDS011;7744;52.172;10.668;2022-09-09T14:27:38;2.40;;;0.60;;
15285;SDS011;7744;52.172;10.668;2022-09-09T14:30:04;2.03;;;0.57;;
15285;SDS011;7744;52.172;10.668;2022-09-09T14:32:31;1.58;;;0.63;;
15285;SDS011;7744;52.172;10.668;2022-09-09T14:34:56;2.90;;;0.80;;
15285;SDS011;7744;52.172;10.668;2022-09-09T14:37:22;2.05;;;0.80;;
15285;SDS011;7744;52.172;10.668;2022-09-09T14:39:48;2.50;;;0.60;;
15285;SDS011;7744;52.172;10.668;2022-09-09T14:42:15;2.30;;;0.80;;
15285;SDS011;7744;52.172;10.668;2022-09-09T14:44:41;1.95;;;0.50;;
15285;SDS011;7744;52.172;10.668;2022-09-09T14:47:07;1.50;;;0.63;;
15285;SDS011;7744;52.172;10.668;2022-09-09T14:49:37;1.92;;;0.88;;
15285;SDS011;7744;52.172;10.668;2022-09-09T14:52:03;2.45;;;0.85;;
15285;SDS011;7744;52.172;10.668;2022-09-09T14:54:29;1.45;;;0.70;;
15285;SDS011;7744;52.172;10.668;2022-09-09T14:56:56;1.95;;;0.80;;
15285;SDS011;7744;52.172;10.668;2022-09-09T14:59:22;1.58;;;0.70;;
15285;SDS011;7744;52.172;10.668;2022-09-09T15:01:48;1.60;;;0.80;;
15285;SDS011;7744;52.172;10.668;2022-09-09T15:04:14;1.80;;;0.80;;
15285;SDS011;7744;52.172;10.668;2022-09-09T15:06:40;2.25;;;0.82;;
15285;SDS011;7744;52.172;10.668;2022-09-09T15:09:07;2.00;;;0.93;;
15285;SDS011;7744;52.172;10.668;2022-09-09T15:11:34;3.08;;;1.00;;
15285;SDS011;7744;52.172;10.668;2022-09-09T15:14:05;4.32;;;0.90;;
15285;SDS011;7744;52.172;10.668;2022-09-09T15:16:32;3.28;;;0.80;;
15285;SDS011;7744;52.172;10.668;2022-09-09T15:18:58;1.63;;;0.90;;
15285;SDS011;7744;52.172;10.668;2022-09-09T15:21:26;1.75;;;0.93;;
15285;SDS011;7744;52.172;10.668;2022-09-09T15:23:57;2.40;;;0.93;;
15285;SDS011;7744;52.172;10.668;2022-09-09T15:26:23;2.47;;;0.82;;
15285;SDS011;7744;52.172;10.668;2022-09-09T15:28:49;2.53;;;1.05;;
15285;SDS011;7744;52.172;10.668;2022-09-09T15:31:22;1.90;;;0.90;;
15285;SDS011;7744;52.172;10.668;2022-09-09T15:33:53;1.92;;;0.75;;
15285;SDS011;7744;52.172;10.668;2022-09-09T15:36:26;2.50;;;0.90;;
15285;SDS011;7744;52.172;10.668;2022-09-09T15:38:54;2.75;;;0.70;;
15285;SDS011;7744;52.172;10.668;2022-09-09T15:41:20;1.30;;;0.60;;
15285;SDS011;7744;52.172;10.668;2022-09-09T15:43:48;2.85;;;0.82;;
15285;SDS011;7744;52.172;10.668;2022-09-09T15:48:57;3.08;;;1.00;;
15285;SDS011;7744;52.172;10.668;2022-09-09T15:51:44;2.35;;;1.05;;
15285;SDS011;7744;52.172;10.668;2022-09-09T15:54:15;3.15;;;0.95;;
15285;SDS011;7744;52.172;10.668;2022-09-09T15:56:43;3.22;;;0.75;;
15285;SDS011;7744;52.172;10.668;2022-09-09T15:59:09;3.20;;;0.88;;
15285;SDS011;7744;52.172;10.668;2022-09-09T16:01:35;2.20;;;0.82;;
15285;SDS011;7744;52.172;10.668;2022-09-09T16:04:01;2.15;;;0.77;;
15285;SDS011;7744;52.172;10.668;2022-09-09T16:06:27;4.85;;;1.15;;
15285;SDS011;7744;52.172;10.668;2022-09-09T16:08:54;2.50;;;0.90;;
15285;SDS011;7744;52.172;10.668;2022-09-09T16:11:28;2.00;;;0.80;;
15285;SDS011;7744;52.172;10.668;2022-09-09T16:14:01;2.03;;;0.90;;
15285;SDS011;7744;52.172;10.668;2022-09-09T16:16:28;2.65;;;0.70;;
15285;SDS011;7744;52.172;10.668;2022-09-09T16:18:55;1.63;;;0.90;;
15285;SDS011;7744;52.172;10.668;2022-09-09T16:21:26;2.83;;;0.70;;
15285;SDS011;7744;52.172;10.668;2022-09-09T16:23:54;2.22;;;0.80;;
15285;SDS011;7744;52.172;10.668;2022-09-09T16:26:21;1.25;;;0.70;;
15285;SDS011;7744;52.172;10.668;2022-09-09T16:28:47;2.15;;;0.70;;
15285;SDS011;7744;52.172;10.668;2022-09-09T16:31:15;1.80;;;0.75;;
15285;SDS011;7744;52.172;10.668;2022-09-09T16:33:42;1.75;;;0.80;;
15285;SDS011;7744;52.172;10.668;2022-09-09T16:36:12;2.20;;;0.98;;
15285;SDS011;7744;52.172;10.668;2022-09-09T16:38:39;2.15;;;1.00;;
15285;SDS011;7744;52.172;10.668;2022-09-09T16:41:05;2.35;;;0.90;;
15285;SDS011;7744;52.172;10.668;2022-09-09T16:43:33;1.15;;;0.80;;
15285;SDS011;7744;52.172;10.668;2022-09-09T16:46:00;1.83;;;1.00;;
15285;SDS011;7744;52.172;10.668;2022-09-09T16:48:26;2.88;;;0.98;;
15285;SDS011;7744;52.172;10.668;2022-09-09T16:51:05;2.10;;;0.68;;
15285;SDS011;7744;52.172;10.668;2022-09-09T16:53:33;2.30;;;0.90;;
15285;SDS011;7744;52.172;10.668;2022-09-09T16:56:09;1.63;;;0.80;;
15285;SDS011;7744;52.172;10.668;2022-09-09T16:58:36;2.22;;;0.98;;
15285;SDS011;7744;52.172;10.668;2022-09-09T17:01:02;1.40;;;0.68;;